Mercer, Missouri
Current Conditions -  °F | °C
As of 6:53 PM on Friday 24 Oct 2014 (Local Time) from KLWD Reporting Station
Clear Clear  
Wind Chill: 66°   Ceiling: Unl
Heat Index: 66°   Visibility: 9mi
Dew Point: 61°   Wind: 3mph
Humidity: 84%   Direction: 160°SSE
Pressure: 29.93"   Gusts: NA
Location:  40.51°N, 93.53°W
Report Text: KLWD 242353Z AUTO 16003KT 9SM CLR 19/16 A2993 RMK AO2 SLP131 T01890161 10206 20156 51005
Loading
Personal Weather Stations






























Interactive Weather Map
Tropical Storm Tracking
New forecast layout! Learn more

10-Day Weather Forecast

Advertisements
Track Severe Weather on mobile